Time;durP1;ratioP1;P1;durP2;ratioP2;P2;SDS_P1;SDS_P2;PMS_P1;PMS_P2;Temp;Humidity;BMP_temperature;BMP_pressure;BME280_temperature;BME280_humidity;BME280_pressure;Samples;Min_cycle;Max_cycle;Signal;HPM_P1;HPM_P2
2021/07/11 00:17:04;;;;;;;9.07;8.17;;;;;;;15.89;69.68;98780.87;512829;1089;103527;-42
2021/07/11 00:27:12;;;;;;;9.43;7.47;;;;;;;15.97;69.37;98785.69;513038;1088;103495;-42
2021/07/11 00:37:19;;;;;;;8.23;7.23;;;;;;;16.05;69.50;98787.05;512841;1090;103131;-42
2021/07/11 00:47:27;;;;;;;10.20;9.15;;;;;;;15.87;69.39;98783.80;512842;1088;103118;-43
2021/07/11 00:57:36;;;;;;;12.35;10.55;;;;;;;15.75;69.64;98780.52;512953;1088;103492;-44
2021/07/11 01:07:43;;;;;;;12.27;8.50;;;;;;;15.71;69.70;98774.11;512982;1090;103499;-44
2021/07/11 01:17:54;;;;;;;12.77;9.10;;;;;;;15.74;69.65;98775.45;513080;1088;103138;-42
2021/07/11 01:28:01;;;;;;;10.85;8.20;;;;;;;15.85;69.88;98780.59;512810;1088;103124;-41
2021/07/11 01:38:10;;;;;;;13.03;9.43;;;;;;;15.94;70.14;98781.69;512837;1088;103501;-42
2021/07/11 01:48:18;;;;;;;10.00;8.85;;;;;;;16.01;70.22;98781.44;513681;1089;103102;-42
2021/07/11 01:58:27;;;;;;;11.83;10.63;;;;;;;16.06;70.16;98778.78;513070;1089;103473;-42
2021/07/11 02:08:36;;;;;;;12.00;10.80;;;;;;;15.89;70.12;98780.87;512947;1089;103466;-42
2021/07/11 02:18:45;;;;;;;8.83;7.17;;;;;;;16.02;70.09;98776.91;512788;1088;103102;-40
2021/07/11 02:28:54;;;;;;;12.17;7.20;;;;;;;16.11;69.97;98780.69;512870;1089;103134;-42
2021/07/11 02:39:00;;;;;;;;;;;;;;;16.17;70.11;98787.64;512838;1089;103416;-42
2021/07/11 02:49:12;;;;;;;12.27;8.63;;;;;;;16.08;70.03;98783.85;512775;1089;103110;-43
2021/07/11 02:59:22;;;;;;;12.03;10.87;;;;;;;15.73;69.81;98789.84;512943;1089;103098;-42
2021/07/11 03:09:30;;;;;;;11.70;8.57;;;;;;;15.60;70.21;98789.23;512906;1089;103105;-43
2021/07/11 03:19:39;;;;;;;24.23;9.53;;;;;;;15.63;70.07;98802.07;512820;1089;103467;-42
2021/07/11 03:30:00;;;;;;;19.27;9.97;;;;;;;16.06;69.77;98820.66;513103;1089;103102;-43
2021/07/11 03:40:12;;;;;;;18.20;11.00;;;;;;;17.23;69.21;98826.26;512865;1089;103106;-43
2021/07/11 03:50:25;;;;;;;14.47;11.00;;;;;;;16.86;69.67;98821.98;512834;1089;103419;-44
2021/07/11 04:00:33;;;;;;;19.43;11.13;;;;;;;16.63;69.51;98822.45;512733;1089;103240;-42
2021/07/11 04:10:42;;;;;;;10.88;9.58;;;;;;;16.80;69.75;98813.17;512808;1089;103133;-43
2021/07/11 04:20:49;;;;;;;;;;;;;;;18.45;70.18;98816.04;512855;1089;103524;-43
2021/07/11 04:30:59;;;;;;;14.25;10.50;;;;;;;18.96;68.43;98818.45;512876;1088;103115;-42
2021/07/11 04:41:09;;;;;;;14.73;10.63;;;;;;;18.30;68.74;98818.81;512807;1090;103577;-41
2021/07/11 04:51:16;;;;;;;10.35;9.30;;;;;;;19.10;68.50;98805.98;512661;1089;103099;-42
2021/07/11 05:01:23;;;;;;;13.55;9.30;;;;;;;19.01;68.52;98807.69;512891;1088;103169;-43
2021/07/11 05:11:30;;;;;;;10.00;8.97;;;;;;;18.55;68.64;98812.52;512998;1088;103099;-42
2021/07/11 05:21:38;;;;;;;14.50;8.83;;;;;;;18.80;69.02;98809.70;512687;1088;103215;-44
2021/07/11 05:31:45;;;;;;;9.95;8.95;;;;;;;18.83;68.96;98794.95;512848;1089;103162;-42
2021/07/11 05:41:53;;;;;;;9.40;7.68;;;;;;;18.81;68.28;98795.23;512830;1089;103869;-42
2021/07/11 05:52:01;;;;;;;6.10;5.40;;;;;;;18.76;68.59;98797.16;513112;1089;103116;-42
2021/07/11 06:02:09;;;;;;;7.73;6.93;;;;;;;18.34;68.87;98785.86;512810;1088;103157;-42
2021/07/11 06:22:24;;;;;;;6.50;5.10;;;;;;;18.00;69.54;98796.47;513084;1088;103511;-42
2021/07/11 06:32:31;;;;;;;7.78;5.93;;;;;;;17.93;69.47;98792.46;513224;1089;103427;-43
2021/07/11 06:42:38;;;;;;;5.53;5.00;;;;;;;17.94;69.30;98794.06;513194;1090;103355;-42
2021/07/11 06:52:48;;;;;;;5.20;4.70;;;;;;;17.82;69.86;98791.71;513103;1088;103374;-43
2021/07/11 07:02:55;;;;;;;5.37;4.87;;;;;;;17.94;69.82;98792.19;513118;1089;103518;-43
2021/07/11 07:13:04;;;;;;;6.78;4.80;;;;;;;17.90;69.35;98801.04;513315;1089;103377;-42
2021/07/11 07:23:12;;;;;;;4.50;4.10;;;;;;;18.08;69.69;98805.80;513150;1088;103426;-42
2021/07/11 07:33:18;;;;;;;7.57;5.77;;;;;;;19.20;69.38;98800.56;513271;1089;103079;-42
2021/07/11 07:43:26;;;;;;;5.88;4.65;;;;;;;19.74;67.75;98796.03;512868;1089;103122;-43
2021/07/11 07:53:33;;;;;;;5.75;5.20;;;;;;;20.19;67.06;98784.75;513250;1090;103140;-42
2021/07/11 08:03:40;;;;;;;6.93;4.10;;;;;;;21.12;66.47;98795.77;512898;1088;103427;-41
2021/07/11 08:13:47;;;;;;;5.68;4.05;;;;;;;21.69;63.99;98789.12;513036;1088;103217;-41
2021/07/11 08:23:53;;;;;;;;;;;;;;;21.97;63.46;98779.14;512939;1088;103520;-42
2021/07/11 08:34:01;;;;;;;5.53;5.03;;;;;;;22.00;63.60;98770.48;513055;1089;103157;-42
2021/07/11 08:44:10;;;;;;;5.93;5.40;;;;;;;22.55;62.81;98783.07;512837;1088;103490;-42
2021/07/11 08:54:18;;;;;;;7.70;5.27;;;;;;;22.86;61.90;98775.09;512954;1089;103131;-41
2021/07/11 09:04:27;;;;;;;4.93;4.50;;;;;;;23.51;62.13;98779.92;513409;1089;103536;-42
2021/07/11 09:14:36;;;;;;;4.60;4.13;;;;;;;23.57;60.84;98782.20;513129;1088;103128;-42
2021/07/11 09:24:47;;;;;;;5.10;4.43;;;;;;;23.58;59.62;98769.50;513176;1089;103221;-44
2021/07/11 09:34:55;;;;;;;5.60;3.77;;;;;;;23.67;59.96;98769.55;513433;1089;104353;-42
2021/07/11 09:45:05;;;;;;;4.53;3.83;;;;;;;24.00;58.78;98762.65;513167;1089;103162;-41
2021/07/11 09:55:18;;;;;;;4.10;3.80;;;;;;;24.02;57.59;98749.63;513586;1088;103157;-47
2021/07/11 10:05:28;;;;;;;7.00;4.60;;;;;;;24.42;57.38;98749.55;512999;1088;103136;-43
2021/07/11 10:15:37;;;;;;;6.30;4.50;;;;;;;24.54;57.46;98746.99;512958;1088;103467;-43
2021/07/11 10:25:55;;;;;;;5.43;4.60;;;;;;;24.76;56.39;98751.44;513004;1089;103097;-42
2021/07/11 10:36:05;;;;;;;5.30;4.90;;;;;;;24.91;57.47;98742.04;512972;1088;103100;-43
2021/07/11 10:46:15;;;;;;;6.67;4.90;;;;;;;24.84;57.45;98742.51;513227;1089;103188;-42
2021/07/11 10:56:22;;;;;;;5.73;5.23;;;;;;;24.97;57.28;98752.36;513089;1088;103707;-43
2021/07/11 11:06:38;;;;;;;6.27;4.70;;;;;;;25.85;56.70;98751.00;513021;1088;103745;-41
2021/07/11 11:16:48;;;;;;;6.83;4.23;;;;;;;26.40;56.14;98742.69;513497;1089;103505;-43
2021/07/11 11:26:55;;;;;;;5.50;5.00;;;;;;;25.79;55.37;98744.16;513066;1088;103118;-43
2021/07/11 11:37:04;;;;;;;7.10;5.47;;;;;;;26.58;54.11;98746.05;513079;1089;103176;-41
2021/07/11 11:47:10;;;;;;;6.83;5.10;;;;;;;25.95;54.84;98737.06;513128;1089;103450;-43
2021/07/11 11:57:31;;;;;;;5.85;5.35;;;;;;;26.03;55.58;98752.50;513227;1088;103522;-43
2021/07/11 12:17:45;;;;;;;6.30;5.70;;;;;;;25.61;55.07;98760.48;513981;1088;103119;-44
2021/07/11 12:38:07;;;;;;;6.67;6.00;;;;;;;25.68;55.73;98736.42;513942;1088;103489;-43
2021/07/11 12:48:12;;;;;;;;;;;;;;;25.82;56.01;98732.70;513041;1089;103140;-43
2021/07/11 12:58:20;;;;;;;12.08;7.08;;;;;;;26.46;55.59;98724.30;513377;1088;103116;-42
2021/07/11 13:08:27;;;;;;;8.77;7.47;;;;;;;26.33;55.40;98712.58;513164;1089;103510;-44
2021/07/11 13:18:35;;;;;;;6.93;6.43;;;;;;;26.48;54.98;98727.46;513108;1089;103313;-41
2021/07/11 13:28:43;;;;;;;8.27;7.47;;;;;;;26.51;54.98;98726.83;513154;1088;103486;-40
2021/07/11 13:38:51;;;;;;;8.20;7.40;;;;;;;26.58;54.91;98718.94;512989;1088;103120;-42
2021/07/11 13:48:59;;;;;;;8.30;7.20;;;;;;;26.12;54.77;98707.16;513307;1089;103536;-44
2021/07/11 14:09:12;;;;;;;8.83;7.10;;;;;;;25.86;55.70;98712.75;513497;1089;103127;-43
2021/07/11 14:19:22;;;;;;;;;;;;;;;25.75;56.23;98699.90;513557;1088;103489;-43
2021/07/11 14:29:30;;;;;;;8.57;6.50;;;;;;;25.65;56.64;98682.09;513206;1089;103121;-43
2021/07/11 14:39:36;;;;;;;7.10;6.50;;;;;;;25.54;56.60;98678.16;513282;1088;103074;-44
2021/07/11 14:49:44;;;;;;;6.88;6.28;;;;;;;25.23;57.30;98667.64;513026;1089;103043;-41
2021/07/11 14:59:52;;;;;;;6.77;6.27;;;;;;;25.00;57.07;98659.77;512935;1089;103150;-42
2021/07/11 15:10:01;;;;;;;7.53;6.83;;;;;;;24.89;58.11;98658.52;513253;1089;103168;-43
2021/07/11 15:20:10;;;;;;;7.70;6.03;;;;;;;24.97;58.28;98640.66;513194;1088;103119;-42
2021/07/11 15:30:20;;;;;;;8.10;7.40;;;;;;;25.11;58.68;98630.47;513254;1088;103100;-42
2021/07/11 15:40:28;;;;;;;8.47;7.77;;;;;;;25.14;58.77;98610.88;513477;1089;103431;-43
2021/07/11 15:50:33;;;;;;;;;;;;;;;24.98;58.70;98607.88;513586;1088;103089;-43
2021/07/11 16:00:42;;;;;;;8.50;7.47;;;;;;;24.98;59.00;98583.53;513480;1089;103073;-43
2021/07/11 16:10:50;;;;;;;12.50;7.03;;;;;;;25.35;59.28;98584.66;513265;1089;103080;-42
2021/07/11 16:20:58;;;;;;;8.00;7.30;;;;;;;25.36;59.01;98599.77;513006;1089;103106;-44
2021/07/11 16:31:06;;;;;;;9.50;7.90;;;;;;;25.21;58.66;98600.32;513023;1088;103105;-40
2021/07/11 16:41:14;;;;;;;9.83;7.90;;;;;;;24.89;59.08;98592.81;512990;1088;103122;-42
2021/07/11 16:51:21;;;;;;;8.03;7.23;;;;;;;24.71;59.84;98603.69;513009;1088;103542;-41
2021/07/11 17:01:29;;;;;;;9.35;8.05;;;;;;;24.76;60.20;98600.80;512874;1088;104151;-43
2021/07/11 17:11:37;;;;;;;9.20;8.30;;;;;;;24.64;60.15;98616.91;513033;1088;103119;-43
2021/07/11 17:21:44;;;;;;;8.93;7.73;;;;;;;24.56;60.20;98625.03;512773;1088;103358;-42
2021/07/11 17:31:52;;;;;;;9.93;8.10;;;;;;;24.49;60.21;98628.23;513169;1089;103962;-42
2021/07/11 17:42:00;;;;;;;7.70;7.00;;;;;;;24.56;60.24;98631.23;513065;1088;103063;-41
2021/07/11 17:52:06;;;;;;;;;;;;;;;24.51;60.45;98642.22;513189;1089;103053;-42
2021/07/11 18:02:14;;;;;;;9.23;8.43;;;;;;;24.47;60.72;98663.69;513131;1088;103151;-42
2021/07/11 18:12:23;;;;;;;9.30;8.40;;;;;;;24.35;60.96;98668.93;513426;1089;103127;-42
2021/07/11 18:22:31;;;;;;;8.40;7.10;;;;;;;24.33;60.99;98657.64;513115;1088;103200;-41
2021/07/11 18:32:36;;;;;;;;;;;;;;;24.29;61.85;98656.70;513187;1089;103416;-42
2021/07/11 18:42:45;;;;;;;10.20;8.37;;;;;;;24.07;61.84;98640.63;513312;1090;103502;-43
2021/07/11 18:52:53;;;;;;;11.23;8.47;;;;;;;23.81;62.13;98627.91;513019;1088;103515;-42
2021/07/11 19:03:01;;;;;;;8.23;7.43;;;;;;;23.60;62.78;98653.91;513076;1089;103204;-41
2021/07/11 19:13:07;;;;;;;9.67;7.10;;;;;;;22.96;63.62;98672.39;513009;1088;103134;-41
2021/07/11 19:23:14;;;;;;;11.53;5.90;;;;;;;22.52;63.23;98644.36;513155;1090;103101;-43
2021/07/11 19:33:22;;;;;;;18.30;8.67;;;;;;;22.17;63.35;98651.38;513167;1089;103422;-42
2021/07/11 19:43:29;;;;;;;13.73;6.15;;;;;;;21.79;63.75;98642.80;512929;1088;103474;-42
2021/07/11 19:53:36;;;;;;;6.97;5.33;;;;;;;21.54;63.58;98641.45;512937;1089;103549;-41
2021/07/11 20:03:44;;;;;;;5.60;3.93;;;;;;;21.14;63.89;98627.68;513167;1089;103445;-43
2021/07/11 20:13:51;;;;;;;6.73;4.30;;;;;;;20.72;65.06;98607.23;513109;1088;103140;-42
2021/07/11 20:24:05;;;;;;;4.80;4.13;;;;;;;20.60;65.41;98582.74;513193;1089;103534;-40
2021/07/11 20:34:13;;;;;;;7.60;5.00;;;;;;;20.40;65.19;98585.75;513000;1088;103402;-42
2021/07/11 20:44:20;;;;;;;8.90;4.27;;;;;;;19.90;66.14;98566.69;512875;1088;103146;-41
2021/07/11 20:54:26;;;;;;;8.90;4.80;;;;;;;19.90;67.43;98570.17;513349;1090;103508;-40
2021/07/11 21:04:35;;;;;;;5.95;4.40;;;;;;;19.61;67.32;98570.30;513266;1089;103492;-41
2021/07/11 21:14:43;;;;;;;8.80;4.90;;;;;;;19.47;68.30;98590.86;513188;1088;103424;-41
2021/07/11 21:24:55;;;;;;;6.65;3.30;;;;;;;19.30;68.67;98610.11;512894;1088;103121;-41
2021/07/11 21:35:02;;;;;;;4.87;3.60;;;;;;;19.28;69.34;98619.52;513031;1089;103143;-41
2021/07/11 21:45:11;;;;;;;6.83;3.60;;;;;;;19.24;69.15;98615.83;513017;1088;103430;-41
2021/07/11 21:55:20;;;;;;;6.13;4.30;;;;;;;19.25;69.45;98596.77;513214;1089;103102;-42
2021/07/11 22:05:28;;;;;;;5.73;4.80;;;;;;;19.24;69.80;98618.50;513107;1089;103273;-42
2021/07/11 22:15:35;;;;;;;8.87;5.73;;;;;;;19.11;69.73;98619.17;513220;1088;103105;-41
2021/07/11 22:25:43;;;;;;;11.70;6.10;;;;;;;18.96;70.43;98631.67;513081;1088;103422;-41
2021/07/11 22:35:50;;;;;;;8.67;5.23;;;;;;;18.76;70.88;98620.36;513167;1089;103157;-42
2021/07/11 22:45:58;;;;;;;9.23;5.68;;;;;;;18.80;71.05;98611.47;513150;1090;103377;-40
2021/07/11 22:56:05;;;;;;;;;;;;;;;18.82;71.39;98603.16;513097;1089;103122;-41
2021/07/11 23:06:13;;;;;;;9.55;5.90;;;;;;;18.73;71.63;98607.54;513192;1088;103508;-42
2021/07/11 23:16:19;;;;;;;;;;;;;;;18.73;72.35;98602.19;512864;1089;103155;-41
2021/07/11 23:26:27;;;;;;;8.47;6.07;;;;;;;18.50;72.05;98588.44;513133;1089;103121;-41
2021/07/11 23:36:35;;;;;;;9.63;5.75;;;;;;;18.36;72.51;98580.25;513057;1088;103105;-41
2021/07/11 23:46:42;;;;;;;5.98;5.15;;;;;;;18.27;72.77;98573.92;513176;1089;103098;-40
2021/07/11 23:56:50;;;;;;;7.83;6.80;;;;;;;18.15;72.83;98584.17;513153;1088;103119;-41
